Airfield :
LOGIN :

Register | Disclaimer

   EN    FR    IT 

 










Legend :    VFR   Marginal VFR   IFR   Intensive IFR   Very Intensive IFR
Visi :
Ceiling :
>= 8 km
>= 3000ft
5 to 8 km
1000 to 3000 ft
1500m to 5 km
500 to 1000 ft
800 to 1500m
200 to 500 ft
< 800m
< 200 ft
Symbols :   Thunderstorms  Fog  Heavy snow  Heavy precipitations  Wind > 20 kt
SIGMETs :     Misc.  Thunderstorms  Icing  Turbulence  Mountain Waves  Volcanic Ashes







- Airport Elevation : 353 ft
- IATA code : LIN


LIML - Milano Linate

CURRENT METAR :
  • 200150Z 06003KT 030V090 9999 SCT045 20/15 Q1015 NOSIG

EXPIRED METARs :
  • 200120Z 07003KT 010V100 9999 SCT045 20/15 Q1014 NOSIG
  • 200050Z 05005KT 020V080 9999 SCT045 20/15 Q1014 NOSIG
  • 200020Z 08003KT 030V130 9999 SCT045 20/15 Q1014 NOSIG
  • 192350Z 10005KT 9999 SCT045 20/14 Q1014 NOSIG
  • 192320Z 11005KT 080V140 9999 SCT045 21/14 Q1014 NOSIG

TAF TAF LIML
Valid from the 20 at 00:00 until the 21 at 00:00 UTC


192300Z 2000/2024 14005KT 9999 SCT060
No reported NOTAMs for that airfield.
2 SIGMETs reported for the Milano FIR (LIMM) :
 
Embedded thunderstorms
LIMM SIGMET 12 VALID 192210/200210 LIMM- LIMM MILANO FIR EMBD TS OBS WI N4634 E01027 - N4540 E01016 - N4540 E00856 - N4506 E00848 - N4432 E00955 - N4455 E01133 - N4442 E01313 - N4519 E01257 - N4537 E01358 - N4632 E01342 - N4708 E01213 - N4653 E01036 - N4634 E01027 TOP FL400 STNR NC=
Embedded thunderstorms
LIMM SIGMET 1 VALID 200210/200610 LIMM- LIMM MILANO FIR EMBD TS OBS WI N4643 E01216 - N4555 E01155 - N4505 E01020 - N4443 E01030 - N4518 E01207 - N4455 E01303 - N4520 E01300 - N4537 E01354 - N4630 E01338 - N4643 E01216 TOP FL320 STNR WKN=



MET'MAP, your aeronautical weather chart ! - Copyright ORBIFLY December 2007 - Disclaimer

ORBIFLY MET'MAP TEAM :

Programming & Development : Alexandra Zaïnal
Concept & Development : Baudouin d'Aumeries
Co-Development & Prog : Marc-Olivier Méhu
Technical & hardware support : Manuel Goepfert

Contact : metmap@orbifly.com




SOURCES & CREDITS :

   NOAA